sensor_id;sensor_type;location;lat;lon;timestamp;pressure;altitude;pressure_sealevel;temperature;humidity
32759;BME280;19125;52.360;9.974;2023-02-12T10:01:34;-15010.44;;;-145.17;76.84
32759;BME280;19125;52.360;9.974;2023-02-12T10:04:00;-15010.44;;;-145.17;76.69
32759;BME280;19125;52.360;9.974;2023-02-12T10:06:39;-15010.44;;;-145.17;76.59
32759;BME280;19125;52.360;9.974;2023-02-12T10:12:26;-15010.44;;;-145.17;76.13
32759;BME280;19125;52.360;9.974;2023-02-12T10:26:38;-15010.44;;;-145.17;75.91
32759;BME280;19125;52.360;9.974;2023-02-12T10:29:12;-15010.44;;;-145.17;75.63
32759;BME280;19125;52.360;9.974;2023-02-12T10:31:43;-15010.44;;;-145.17;75.62
32759;BME280;19125;52.360;9.974;2023-02-12T10:34:14;-15010.44;;;-145.17;75.13
32759;BME280;19125;52.360;9.974;2023-02-12T10:36:46;-15010.44;;;-145.17;75.21
32759;BME280;19125;52.360;9.974;2023-02-12T10:39:14;-15010.44;;;-145.17;75.11
32759;BME280;19125;52.360;9.974;2023-02-12T10:42:06;-15010.44;;;-145.17;74.49
32759;BME280;19125;52.360;9.974;2023-02-12T10:44:34;-15010.44;;;-145.17;74.62
32759;BME280;19125;52.360;9.974;2023-02-12T10:47:00;-15010.44;;;-145.17;74.63
32759;BME280;19125;52.360;9.974;2023-02-12T10:49:25;-15010.44;;;-145.17;74.37
32759;BME280;19125;52.360;9.974;2023-02-12T10:54:43;-15010.44;;;-145.17;74.22
32759;BME280;19125;52.360;9.974;2023-02-12T10:57:30;-15010.44;;;-145.17;73.86
32759;BME280;19125;52.360;9.974;2023-02-12T10:59:56;-15010.44;;;-145.17;73.61
32759;BME280;19125;52.360;9.974;2023-02-12T11:02:37;-15010.44;;;-145.17;73.56
32759;BME280;19125;52.360;9.974;2023-02-12T11:05:22;-15010.44;;;-145.17;73.48
32759;BME280;19125;52.360;9.974;2023-02-12T11:07:49;-15010.44;;;-145.17;73.48
32759;BME280;19125;52.360;9.974;2023-02-12T11:10:31;-15010.44;;;-145.17;73.44
32759;BME280;19125;52.360;9.974;2023-02-12T11:12:58;-15010.44;;;-145.17;73.27
32759;BME280;19125;52.360;9.974;2023-02-12T11:15:25;-15010.44;;;-145.17;73.33
32759;BME280;19125;52.360;9.974;2023-02-12T11:17:57;-15010.44;;;-145.17;72.83
32759;BME280;19125;52.360;9.974;2023-02-12T11:20:38;-15010.44;;;-145.17;72.86
32759;BME280;19125;52.360;9.974;2023-02-12T11:23:42;-15010.44;;;-145.17;72.79
32759;BME280;19125;52.360;9.974;2023-02-12T11:26:18;-15010.44;;;-145.17;72.29
32759;BME280;19125;52.360;9.974;2023-02-12T11:28:58;-15010.44;;;-145.17;73.05
32759;BME280;19125;52.360;9.974;2023-02-12T11:31:29;-15010.44;;;-145.17;72.59
32759;BME280;19125;52.360;9.974;2023-02-12T11:34:14;-15010.44;;;-145.17;72.51
32759;BME280;19125;52.360;9.974;2023-02-12T11:36:45;-15010.44;;;-145.17;72.10
32759;BME280;19125;52.360;9.974;2023-02-12T11:39:20;-15010.44;;;-145.17;71.94
32759;BME280;19125;52.360;9.974;2023-02-12T11:41:57;-15010.44;;;-145.17;71.78
32759;BME280;19125;52.360;9.974;2023-02-12T11:44:29;-15010.44;;;-145.17;71.38
32759;BME280;19125;52.360;9.974;2023-02-12T11:46:59;-15010.44;;;-145.17;71.28
32759;BME280;19125;52.360;9.974;2023-02-12T11:49:31;-15010.44;;;-145.17;71.48
32759;BME280;19125;52.360;9.974;2023-02-12T11:51:59;-15010.44;;;-145.17;70.98
32759;BME280;19125;52.360;9.974;2023-02-12T11:54:28;-15010.44;;;-145.17;70.81
32759;BME280;19125;52.360;9.974;2023-02-12T11:56:55;-15010.44;;;-145.17;70.45
32759;BME280;19125;52.360;9.974;2023-02-12T12:02:03;-15009.00;;;-145.17;69.80
32759;BME280;19125;52.360;9.974;2023-02-12T12:04:32;-14513.88;;;-145.17;69.71
32759;BME280;19125;52.360;9.974;2023-02-12T12:07:05;-13771.13;;;-145.17;69.30
32759;BME280;19125;52.360;9.974;2023-02-12T12:09:57;-12532.84;;;-145.17;69.00
32759;BME280;19125;52.360;9.974;2023-02-12T12:12:47;-11046.41;;;-145.17;68.53
32759;BME280;19125;52.360;9.974;2023-02-12T12:15:27;-9807.25;;;-145.17;68.30
32759;BME280;19125;52.360;9.974;2023-02-12T12:18:28;-7823.78;;;-145.17;67.85
32759;BME280;19125;52.360;9.974;2023-02-12T12:21:26;-6335.50;;;-145.17;67.74
32759;BME280;19125;52.360;9.974;2023-02-12T12:24:21;-4846.66;;;-145.17;67.71
32759;BME280;19125;52.360;9.974;2023-02-12T12:26:56;-4350.25;;;-145.17;67.34
32759;BME280;19125;52.360;9.974;2023-02-12T12:32:13;-1867.22;;;-145.17;67.02
32759;BME280;19125;52.360;9.974;2023-02-12T12:34:40;-873.56;;;-145.17;67.26
32759;BME280;19125;52.360;9.974;2023-02-12T12:37:33;-128.16;;;-145.17;67.20
32759;BME280;19125;52.360;9.974;2023-02-12T12:40:35;-128.16;;;-145.17;67.18
32759;BME280;19125;52.360;9.974;2023-02-12T12:43:24;-128.16;;;-145.17;67.05
32759;BME280;19125;52.360;9.974;2023-02-12T12:46:18;865.97;;;-145.17;66.90
32759;BME280;19125;52.360;9.974;2023-02-12T12:48:54;2108.97;;;-145.17;67.07
32759;BME280;19125;52.360;9.974;2023-02-12T12:51:57;3352.34;;;-145.17;66.62
32759;BME280;19125;52.360;9.974;2023-02-12T12:57:19;4596.16;;;-145.17;66.55
32759;BME280;19125;52.360;9.974;2023-02-12T13:00:23;6089.22;;;-145.17;66.23
32759;BME280;19125;52.360;9.974;2023-02-12T13:03:13;7333.91;;;-145.17;66.47
32759;BME280;19125;52.360;9.974;2023-02-12T13:13:49;13812.69;;;-145.17;65.45
32759;BME280;19125;52.360;9.974;2023-02-12T13:16:28;14311.50;;;-145.17;65.53
32759;BME280;19125;52.360;9.974;2023-02-12T13:24:21;15808.34;;;-145.17;65.19
32759;BME280;19125;52.360;9.974;2023-02-12T13:26:56;15309.34;;;-145.17;65.33
32759;BME280;19125;52.360;9.974;2023-02-12T13:29:34;14560.94;;;-145.17;65.77
32759;BME280;19125;52.360;9.974;2023-02-12T13:32:06;14810.38;;;-145.17;65.64
32759;BME280;19125;52.360;9.974;2023-02-12T13:34:38;15059.84;;;-145.17;65.64
32759;BME280;19125;52.360;9.974;2023-02-12T13:37:13;13812.69;;;-145.17;65.94
32759;BME280;19125;52.360;9.974;2023-02-12T13:39:42;12565.94;;;-145.17;65.92
32759;BME280;19125;52.360;9.974;2023-02-12T13:47:48;9575.34;;;-145.17;66.39
32759;BME280;19125;52.360;9.974;2023-02-12T13:53:14;6836.00;;;-145.17;67.23
32759;BME280;19125;52.360;9.974;2023-02-12T14:03:25;5591.47;;;-145.17;66.69
32759;BME280;19125;52.360;9.974;2023-02-12T14:08:37;5342.63;;;-145.17;67.54
32759;BME280;19125;52.360;9.974;2023-02-12T14:11:17;5093.78;;;-145.17;67.30
32759;BME280;19125;52.360;9.974;2023-02-12T14:14:02;4596.16;;;-145.17;67.62
32759;BME280;19125;52.360;9.974;2023-02-12T14:22:02;2357.59;;;-145.17;68.15
32759;BME280;19125;52.360;9.974;2023-02-12T14:27:15;1114.53;;;-145.17;68.31
32759;BME280;19125;52.360;9.974;2023-02-12T14:37:57;-2363.94;;;-145.17;68.59
32759;BME280;19125;52.360;9.974;2023-02-12T14:42:55;-3357.22;;;-145.17;68.54
32759;BME280;19125;52.360;9.974;2023-02-12T14:45:33;-3108.94;;;-145.17;68.41
32759;BME280;19125;52.360;9.974;2023-02-12T14:48:00;-2363.94;;;-145.17;68.07
32759;BME280;19125;52.360;9.974;2023-02-12T14:50:36;-1867.22;;;-145.17;68.07
32759;BME280;19125;52.360;9.974;2023-02-12T14:53:40;-1122.00;;;-145.17;68.34
32759;BME280;19125;52.360;9.974;2023-02-12T14:56:06;-873.56;;;-145.17;67.97
32759;BME280;19125;52.360;9.974;2023-02-12T14:58:34;-1122.00;;;-145.17;68.03
32759;BME280;19125;52.360;9.974;2023-02-12T15:01:02;-625.09;;;-145.17;67.68
32759;BME280;19125;52.360;9.974;2023-02-12T15:03:42;-376.63;;;-145.17;68.05
32759;BME280;19125;52.360;9.974;2023-02-12T15:06:16;617.41;;;-145.17;67.29
32759;BME280;19125;52.360;9.974;2023-02-12T15:09:00;1114.53;;;-145.17;67.81
32759;BME280;19125;52.360;9.974;2023-02-12T15:14:05;1860.31;;;-145.17;67.34
32759;BME280;19125;52.360;9.974;2023-02-12T15:22:19;3103.63;;;-145.17;67.54
32759;BME280;19125;52.360;9.974;2023-02-12T15:24:46;3352.34;;;-145.17;67.60
32759;BME280;19125;52.360;9.974;2023-02-12T15:27:13;3352.34;;;-145.17;67.05
32759;BME280;19125;52.360;9.974;2023-02-12T15:29:48;3103.63;;;-145.17;67.79
32759;BME280;19125;52.360;9.974;2023-02-12T15:32:26;2606.25;;;-145.17;67.58
32759;BME280;19125;52.360;9.974;2023-02-12T15:34:58;1860.31;;;-145.17;67.86
32759;BME280;19125;52.360;9.974;2023-02-12T15:37:28;865.97;;;-145.17;67.49
32759;BME280;19125;52.360;9.974;2023-02-12T15:39:57;-128.16;;;-145.17;67.74
32759;BME280;19125;52.360;9.974;2023-02-12T15:42:31;-1122.00;;;-145.17;67.99
32759;BME280;19125;52.360;9.974;2023-02-12T15:45:27;-2115.59;;;-145.17;68.58
32759;BME280;19125;52.360;9.974;2023-02-12T15:48:17;-2363.94;;;-145.17;68.75
32759;BME280;19125;52.360;9.974;2023-02-12T15:50:53;-2860.63;;;-145.17;68.75
32759;BME280;19125;52.360;9.974;2023-02-12T15:53:25;-2860.63;;;-145.17;68.26
32759;BME280;19125;52.360;9.974;2023-02-12T15:55:59;-2860.63;;;-145.17;68.71
32759;BME280;19125;52.360;9.974;2023-02-12T15:58:46;-2860.63;;;-145.17;68.60
32759;BME280;19125;52.360;9.974;2023-02-12T16:01:15;-2612.28;;;-145.17;68.29
32759;BME280;19125;52.360;9.974;2023-02-12T16:03:43;-2363.94;;;-145.17;68.20
32759;BME280;19125;52.360;9.974;2023-02-12T16:06:14;-2363.94;;;-145.17;68.38
32759;BME280;19125;52.360;9.974;2023-02-12T16:08:46;-2363.94;;;-145.17;68.38
32759;BME280;19125;52.360;9.974;2023-02-12T16:11:27;-2612.28;;;-145.17;68.43
32759;BME280;19125;52.360;9.974;2023-02-12T16:13:57;-2860.63;;;-145.17;68.22
32759;BME280;19125;52.360;9.974;2023-02-12T16:16:26;-3357.22;;;-145.17;68.48
32759;BME280;19125;52.360;9.974;2023-02-12T16:19:28;-3853.78;;;-145.17;68.66
32759;BME280;19125;52.360;9.974;2023-02-12T16:22:15;-4846.66;;;-145.17;68.85
32759;BME280;19125;52.360;9.974;2023-02-12T16:24:49;-5591.16;;;-145.17;69.06
32759;BME280;19125;52.360;9.974;2023-02-12T16:27:17;-6583.59;;;-145.17;69.24
32759;BME280;19125;52.360;9.974;2023-02-12T16:29:47;-7327.75;;;-145.17;69.45
32759;BME280;19125;52.360;9.974;2023-02-12T16:32:35;-8071.78;;;-145.17;69.39
32759;BME280;19125;52.360;9.974;2023-02-12T16:40:09;-9559.38;;;-145.17;70.01
32759;BME280;19125;52.360;9.974;2023-02-12T16:47:56;-9559.38;;;-145.17;69.34
32759;BME280;19125;52.360;9.974;2023-02-12T16:50:26;-9559.38;;;-145.17;69.55
32759;BME280;19125;52.360;9.974;2023-02-12T16:53:03;-9063.56;;;-145.17;69.68
32759;BME280;19125;52.360;9.974;2023-02-12T16:55:29;-8815.66;;;-145.17;69.26
32759;BME280;19125;52.360;9.974;2023-02-12T16:57:55;-8319.75;;;-145.17;69.29
32759;BME280;19125;52.360;9.974;2023-02-12T17:00:20;-8071.78;;;-145.17;69.30
32759;BME280;19125;52.360;9.974;2023-02-12T17:02:46;-7823.78;;;-145.17;69.18
32759;BME280;19125;52.360;9.974;2023-02-12T17:05:14;-7327.75;;;-145.17;68.85
32759;BME280;19125;52.360;9.974;2023-02-12T17:07:42;-6831.66;;;-145.17;68.94
32759;BME280;19125;52.360;9.974;2023-02-12T17:10:14;-6583.59;;;-145.17;68.84
32759;BME280;19125;52.360;9.974;2023-02-12T17:12:45;-6087.41;;;-145.17;68.84
32759;BME280;19125;52.360;9.974;2023-02-12T17:15:23;-5591.16;;;-145.17;68.92
32759;BME280;19125;52.360;9.974;2023-02-12T17:17:50;-5094.84;;;-145.17;68.32
32759;BME280;19125;52.360;9.974;2023-02-12T17:20:16;-4598.47;;;-145.17;68.40
32759;BME280;19125;52.360;9.974;2023-02-12T17:22:48;-4102.00;;;-145.17;68.41
32759;BME280;19125;52.360;9.974;2023-02-12T17:25:14;-3605.50;;;-145.17;68.26
32759;BME280;19125;52.360;9.974;2023-02-12T17:27:39;-3108.94;;;-145.17;67.85
32759;BME280;19125;52.360;9.974;2023-02-12T17:30:05;-2612.28;;;-145.17;68.26
32759;BME280;19125;52.360;9.974;2023-02-12T17:32:31;-2115.59;;;-145.17;67.67
32759;BME280;19125;52.360;9.974;2023-02-12T17:34:58;-1618.84;;;-145.17;68.17
32759;BME280;19125;52.360;9.974;2023-02-12T17:37:23;-1122.00;;;-145.17;67.76
32759;BME280;19125;52.360;9.974;2023-02-12T17:39:50;-873.56;;;-145.17;67.87
32759;BME280;19125;52.360;9.974;2023-02-12T17:42:15;-625.09;;;-145.17;67.74
32759;BME280;19125;52.360;9.974;2023-02-12T17:44:41;-376.63;;;-145.17;67.42
32759;BME280;19125;52.360;9.974;2023-02-12T17:47:06;120.34;;;-145.17;67.94
32759;BME280;19125;52.360;9.974;2023-02-12T17:49:31;120.34;;;-145.17;67.85
32759;BME280;19125;52.360;9.974;2023-02-12T17:51:58;368.88;;;-145.17;67.54
32759;BME280;19125;52.360;9.974;2023-02-12T17:56:21;120.34;;;-145.17;67.64
32759;BME280;19125;52.360;9.974;2023-02-12T17:58:49;120.34;;;-145.17;67.83
32759;BME280;19125;52.360;9.974;2023-02-12T18:01:23;-128.16;;;-145.17;67.66
32759;BME280;19125;52.360;9.974;2023-02-12T18:04:02;-376.63;;;-145.17;67.87
32759;BME280;19125;52.360;9.974;2023-02-12T18:06:38;-625.09;;;-145.17;68.18
32759;BME280;19125;52.360;9.974;2023-02-12T18:09:04;-1122.00;;;-145.17;68.36
32759;BME280;19125;52.360;9.974;2023-02-12T18:11:38;-1618.84;;;-145.17;67.89
32759;BME280;19125;52.360;9.974;2023-02-12T18:17:49;-2612.28;;;-145.17;68.03
32759;BME280;19125;52.360;9.974;2023-02-12T18:20:15;-2860.63;;;-145.17;68.14
32759;BME280;19125;52.360;9.974;2023-02-12T18:22:46;-3108.94;;;-145.17;68.81
32759;BME280;19125;52.360;9.974;2023-02-12T18:25:19;-3357.22;;;-145.17;68.44
32759;BME280;19125;52.360;9.974;2023-02-12T18:42:52;-5094.84;;;-145.17;68.81
32759;BME280;19125;52.360;9.974;2023-02-12T18:45:17;-5094.84;;;-145.17;68.89
32759;BME280;19125;52.360;9.974;2023-02-12T18:47:43;-5343.00;;;-145.17;68.87
32759;BME280;19125;52.360;9.974;2023-02-12T18:50:09;-5591.16;;;-145.17;68.95
32759;BME280;19125;52.360;9.974;2023-02-12T18:52:34;-5839.28;;;-145.17;69.30
32759;BME280;19125;52.360;9.974;2023-02-12T18:55:01;-6087.41;;;-145.17;68.82
32759;BME280;19125;52.360;9.974;2023-02-12T18:57:27;-6335.50;;;-145.17;68.76
32759;BME280;19125;52.360;9.974;2023-02-12T18:59:53;-6335.50;;;-145.17;69.12
32759;BME280;19125;52.360;9.974;2023-02-12T19:02:19;-6583.59;;;-145.17;68.69
32759;BME280;19125;52.360;9.974;2023-02-12T19:04:44;-6831.66;;;-145.17;69.16
32759;BME280;19125;52.360;9.974;2023-02-12T19:07:10;-7079.72;;;-145.17;69.11
32759;BME280;19125;52.360;9.974;2023-02-12T19:09:35;-7327.75;;;-145.17;69.53
32759;BME280;19125;52.360;9.974;2023-02-12T19:12:01;-7823.78;;;-145.17;68.83
32759;BME280;19125;52.360;9.974;2023-02-12T19:14:28;-8071.78;;;-145.17;69.50
32759;BME280;19125;52.360;9.974;2023-02-12T19:16:54;-8319.75;;;-145.17;69.26
32759;BME280;19125;52.360;9.974;2023-02-12T19:19:20;-8567.72;;;-145.17;69.06
32759;BME280;19125;52.360;9.974;2023-02-12T19:21:45;-8815.66;;;-145.17;69.61
32759;BME280;19125;52.360;9.974;2023-02-12T19:24:15;-8815.66;;;-145.17;69.69
32759;BME280;19125;52.360;9.974;2023-02-12T19:26:41;-9063.56;;;-145.17;69.33
32759;BME280;19125;52.360;9.974;2023-02-12T19:29:09;-9311.50;;;-145.17;69.54
32759;BME280;19125;52.360;9.974;2023-02-12T19:31:42;-9311.50;;;-145.17;69.36
32759;BME280;19125;52.360;9.974;2023-02-12T19:34:11;-9311.50;;;-145.17;69.18
32759;BME280;19125;52.360;9.974;2023-02-12T19:36:40;-9559.38;;;-145.17;69.24
32759;BME280;19125;52.360;9.974;2023-02-12T19:39:05;-9559.38;;;-145.17;69.69
32759;BME280;19125;52.360;9.974;2023-02-12T19:41:31;-9559.38;;;-145.17;69.39
32759;BME280;19125;52.360;9.974;2023-02-12T19:43:59;-9559.38;;;-145.17;69.55
32759;BME280;19125;52.360;9.974;2023-02-12T19:46:27;-9559.38;;;-145.17;69.04
32759;BME280;19125;52.360;9.974;2023-02-12T19:48:58;-9807.25;;;-145.17;69.17
32759;BME280;19125;52.360;9.974;2023-02-12T19:51:25;-9807.25;;;-145.17;69.40
32759;BME280;19125;52.360;9.974;2023-02-12T19:53:51;-9807.25;;;-145.17;68.93
32759;BME280;19125;52.360;9.974;2023-02-12T19:56:17;-9807.25;;;-145.17;69.38
32759;BME280;19125;52.360;9.974;2023-02-12T19:58:43;-9807.25;;;-145.17;69.27
32759;BME280;19125;52.360;9.974;2023-02-12T20:01:12;-9807.25;;;-145.17;69.69
32759;BME280;19125;52.360;9.974;2023-02-12T20:03:38;-9807.25;;;-145.17;69.11
32759;BME280;19125;52.360;9.974;2023-02-12T20:06:07;-9807.25;;;-145.17;69.02
32759;BME280;19125;52.360;9.974;2023-02-12T20:08:37;-9559.38;;;-145.17;69.60
32759;BME280;19125;52.360;9.974;2023-02-12T20:11:23;-9559.38;;;-145.17;69.10
32759;BME280;19125;52.360;9.974;2023-02-12T20:13:49;-9311.50;;;-145.17;69.12
32759;BME280;19125;52.360;9.974;2023-02-12T20:16:18;-9311.50;;;-145.17;69.39
32759;BME280;19125;52.360;9.974;2023-02-12T20:18:44;-9063.56;;;-145.17;68.68
32759;BME280;19125;52.360;9.974;2023-02-12T20:21:14;-9063.56;;;-145.17;68.85
32759;BME280;19125;52.360;9.974;2023-02-12T20:23:40;-8815.66;;;-145.17;69.15
32759;BME280;19125;52.360;9.974;2023-02-12T20:26:07;-8815.66;;;-145.17;69.13
32759;BME280;19125;52.360;9.974;2023-02-12T20:28:33;-8815.66;;;-145.17;69.06
32759;BME280;19125;52.360;9.974;2023-02-12T20:31:07;-8815.66;;;-145.17;68.69
32759;BME280;19125;52.360;9.974;2023-02-12T20:33:32;-9063.56;;;-145.17;68.97
32759;BME280;19125;52.360;9.974;2023-02-12T20:35:58;-9063.56;;;-145.17;69.44
32759;BME280;19125;52.360;9.974;2023-02-12T20:38:23;-9311.50;;;-145.17;69.09
32759;BME280;19125;52.360;9.974;2023-02-12T20:40:48;-9559.38;;;-145.17;69.84
32759;BME280;19125;52.360;9.974;2023-02-12T20:43:15;-9807.25;;;-145.17;69.79
32759;BME280;19125;52.360;9.974;2023-02-12T20:45:41;-10302.97;;;-145.17;69.52
32759;BME280;19125;52.360;9.974;2023-02-12T20:48:06;-10550.78;;;-145.17;69.59
32759;BME280;19125;52.360;9.974;2023-02-12T20:50:32;-11046.41;;;-145.17;69.42
32759;BME280;19125;52.360;9.974;2023-02-12T20:52:59;-11294.19;;;-145.17;69.82
32759;BME280;19125;52.360;9.974;2023-02-12T20:55:24;-11541.97;;;-145.17;69.57
32759;BME280;19125;52.360;9.974;2023-02-12T20:57:50;-12037.44;;;-145.17;69.74
32759;BME280;19125;52.360;9.974;2023-02-12T21:00:16;-12285.16;;;-145.17;70.02
32759;BME280;19125;52.360;9.974;2023-02-12T21:02:41;-12532.84;;;-145.17;70.02
32759;BME280;19125;52.360;9.974;2023-02-12T21:05:07;-13028.22;;;-145.17;70.38
32759;BME280;19125;52.360;9.974;2023-02-12T21:07:36;-13275.88;;;-145.17;70.05
32759;BME280;19125;52.360;9.974;2023-02-12T21:10:01;-13523.50;;;-145.17;70.41
32759;BME280;19125;52.360;9.974;2023-02-12T21:12:27;-13771.13;;;-145.17;70.66
32759;BME280;19125;52.360;9.974;2023-02-12T21:14:55;-13771.13;;;-145.17;70.54
32759;BME280;19125;52.360;9.974;2023-02-12T21:17:20;-14018.72;;;-145.17;70.46
32759;BME280;19125;52.360;9.974;2023-02-12T21:19:46;-14266.31;;;-145.17;70.77
32759;BME280;19125;52.360;9.974;2023-02-12T21:22:11;-14266.31;;;-145.17;70.71
32759;BME280;19125;52.360;9.974;2023-02-12T21:24:36;-14513.88;;;-145.17;70.88
32759;BME280;19125;52.360;9.974;2023-02-12T21:27:02;-14513.88;;;-145.17;70.62
32759;BME280;19125;52.360;9.974;2023-02-12T21:29:28;-14761.44;;;-145.17;70.95
32759;BME280;19125;52.360;9.974;2023-02-12T21:31:59;-14761.44;;;-145.17;70.88
32759;BME280;19125;52.360;9.974;2023-02-12T21:34:25;-15009.00;;;-145.17;70.68
32759;BME280;19125;52.360;9.974;2023-02-12T21:36:54;-15009.00;;;-145.17;71.29
32759;BME280;19125;52.360;9.974;2023-02-12T21:39:23;-15009.00;;;-145.17;71.21
32759;BME280;19125;52.360;9.974;2023-02-12T21:41:51;-15009.00;;;-145.17;70.97
32759;BME280;19125;52.360;9.974;2023-02-12T21:44:18;-15010.44;;;-145.17;71.25
32759;BME280;19125;52.360;9.974;2023-02-12T21:46:44;-15010.44;;;-145.17;70.95
32759;BME280;19125;52.360;9.974;2023-02-12T21:49:14;-15010.44;;;-145.17;71.29
32759;BME280;19125;52.360;9.974;2023-02-12T21:51:47;-15010.44;;;-145.17;71.35
32759;BME280;19125;52.360;9.974;2023-02-12T21:54:14;-15010.44;;;-145.17;71.31
32759;BME280;19125;52.360;9.974;2023-02-12T21:56:41;-15010.44;;;-145.17;71.24
32759;BME280;19125;52.360;9.974;2023-02-12T21:59:07;-15010.44;;;-145.17;71.22
32759;BME280;19125;52.360;9.974;2023-02-12T22:01:35;-15010.44;;;-145.17;71.52
32759;BME280;19125;52.360;9.974;2023-02-12T22:04:01;-15010.44;;;-145.17;71.76
32759;BME280;19125;52.360;9.974;2023-02-12T22:06:26;-15010.44;;;-145.17;71.82
32759;BME280;19125;52.360;9.974;2023-02-12T22:08:52;-15010.44;;;-145.17;71.85
32759;BME280;19125;52.360;9.974;2023-02-12T22:11:19;-15010.44;;;-145.17;71.46
32759;BME280;19125;52.360;9.974;2023-02-12T22:13:44;-15010.44;;;-145.17;71.66
32759;BME280;19125;52.360;9.974;2023-02-12T22:18:37;-15010.44;;;-145.17;71.54
32759;BME280;19125;52.360;9.974;2023-02-12T22:21:03;-15010.44;;;-145.17;71.58
32759;BME280;19125;52.360;9.974;2023-02-12T22:23:29;-15010.44;;;-145.17;71.62
32759;BME280;19125;52.360;9.974;2023-02-12T22:25:54;-15010.44;;;-145.17;71.95
32759;BME280;19125;52.360;9.974;2023-02-12T22:28:20;-15010.44;;;-145.17;71.46
32759;BME280;19125;52.360;9.974;2023-02-12T22:30:45;-15010.44;;;-145.17;71.34
32759;BME280;19125;52.360;9.974;2023-02-12T22:33:10;-15010.44;;;-145.17;71.83
32759;BME280;19125;52.360;9.974;2023-02-12T22:35:36;-15010.44;;;-145.17;71.56
32759;BME280;19125;52.360;9.974;2023-02-12T22:38:01;-15010.44;;;-145.17;71.75
32759;BME280;19125;52.360;9.974;2023-02-12T22:40:27;-15010.44;;;-145.17;71.97
32759;BME280;19125;52.360;9.974;2023-02-12T22:42:52;-15010.44;;;-145.17;71.73
32759;BME280;19125;52.360;9.974;2023-02-12T22:45:18;-15010.44;;;-145.17;71.70
32759;BME280;19125;52.360;9.974;2023-02-12T22:47:43;-15010.44;;;-145.17;72.04
32759;BME280;19125;52.360;9.974;2023-02-12T22:50:09;-15010.44;;;-145.17;72.21
32759;BME280;19125;52.360;9.974;2023-02-12T22:52:34;-15010.44;;;-145.17;71.89
32759;BME280;19125;52.360;9.974;2023-02-12T22:55:00;-15010.44;;;-145.17;71.88
32759;BME280;19125;52.360;9.974;2023-02-12T22:57:25;-15010.44;;;-145.17;71.67
32759;BME280;19125;52.360;9.974;2023-02-12T22:59:50;-15010.44;;;-145.17;72.28
32759;BME280;19125;52.360;9.974;2023-02-12T23:02:15;-15010.44;;;-145.17;72.00
32759;BME280;19125;52.360;9.974;2023-02-12T23:04:41;-15010.44;;;-145.17;72.14
32759;BME280;19125;52.360;9.974;2023-02-12T23:07:06;-15010.44;;;-145.17;72.39
32759;BME280;19125;52.360;9.974;2023-02-12T23:09:31;-15010.44;;;-145.17;72.08
32759;BME280;19125;52.360;9.974;2023-02-12T23:11:57;-15010.44;;;-145.17;72.19
32759;BME280;19125;52.360;9.974;2023-02-12T23:14:22;-15010.44;;;-145.17;72.36
32759;BME280;19125;52.360;9.974;2023-02-12T23:16:47;-15010.44;;;-145.17;72.34
32759;BME280;19125;52.360;9.974;2023-02-12T23:19:14;-15010.44;;;-145.17;72.20
32759;BME280;19125;52.360;9.974;2023-02-12T23:21:40;-15010.44;;;-145.17;71.98
32759;BME280;19125;52.360;9.974;2023-02-12T23:24:05;-15010.44;;;-145.17;72.24
32759;BME280;19125;52.360;9.974;2023-02-12T23:26:31;-15010.44;;;-145.17;72.00
32759;BME280;19125;52.360;9.974;2023-02-12T23:28:57;-15010.44;;;-145.17;72.14
32759;BME280;19125;52.360;9.974;2023-02-12T23:31:23;-15010.44;;;-145.17;72.33
32759;BME280;19125;52.360;9.974;2023-02-12T23:33:48;-15010.44;;;-145.17;71.95
32759;BME280;19125;52.360;9.974;2023-02-12T23:36:14;-15010.44;;;-145.17;72.24
32759;BME280;19125;52.360;9.974;2023-02-12T23:38:39;-15010.44;;;-145.17;72.65
32759;BME280;19125;52.360;9.974;2023-02-12T23:41:05;-15010.44;;;-145.17;71.77
32759;BME280;19125;52.360;9.974;2023-02-12T23:43:30;-15010.44;;;-145.17;72.37
32759;BME280;19125;52.360;9.974;2023-02-12T23:45:57;-15010.44;;;-145.17;72.19
32759;BME280;19125;52.360;9.974;2023-02-12T23:48:22;-15010.44;;;-145.17;72.13
32759;BME280;19125;52.360;9.974;2023-02-12T23:50:47;-15010.44;;;-145.17;72.35
32759;BME280;19125;52.360;9.974;2023-02-12T23:53:13;-15010.44;;;-145.17;72.11
32759;BME280;19125;52.360;9.974;2023-02-12T23:55:38;-15010.44;;;-145.17;72.14
32759;BME280;19125;52.360;9.974;2023-02-12T23:58:04;-15010.44;;;-145.17;72.45
